Terminal Aerodrome Forecast
Issued by NWS

Home | Current Version | Previous Version | Text Only | Print | Product List | Glossary On
Versions: 1 2 3 4 5 6 7 8 9 10 11 12 13
000
FTUS46 KOTX 232333
TAFMWH
TAF
KMWH 232333Z 2400/2424 23008KT P6SM SKC
     FM240500 34006KT P6SM SKC
     FM241400 36010KT 6SM HZ SKC
     FM241700 01014G19KT P6SM SKC
     FM242100 02010KT P6SM SKC=

USA.gov is the U.S. government's official web portal to all federal, state and local government web resources and services.